createdAt,value
2023-04-22T00:00:32.485Z,14.04
2023-04-22T00:03:02.108Z,14.01
2023-04-22T00:05:31.749Z,13.81
2023-04-22T00:07:59.904Z,13.68
2023-04-22T00:10:28.420Z,13.64
2023-04-22T00:12:56.438Z,13.82
2023-04-22T00:15:25.559Z,13.57
2023-04-22T00:17:54.029Z,13.55
2023-04-22T00:20:22.828Z,13.64
2023-04-22T00:22:52.485Z,13.72
2023-04-22T00:25:20.647Z,13.51
2023-04-22T00:27:48.713Z,13.50
2023-04-22T00:30:16.833Z,13.58
2023-04-22T00:32:45.046Z,13.55
2023-04-22T00:35:13.118Z,13.64
2023-04-22T00:37:41.449Z,13.58
2023-04-22T00:40:11.926Z,13.50
2023-04-22T00:42:40.521Z,13.31
2023-04-22T00:45:12.847Z,12.89
2023-04-22T00:47:41.426Z,13.21
2023-04-22T00:50:10.113Z,13.19
2023-04-22T00:52:38.211Z,13.22
2023-04-22T00:55:07.104Z,13.22
2023-04-22T00:57:37.211Z,13.17
2023-04-22T01:00:06.266Z,13.05
2023-04-22T01:02:34.688Z,12.97
2023-04-22T01:05:04.075Z,12.84
2023-04-22T01:07:32.079Z,12.77
2023-04-22T01:10:00.764Z,12.65
2023-04-22T01:12:28.837Z,12.59
2023-04-22T01:14:58.494Z,12.45
2023-04-22T01:17:26.653Z,12.01
2023-04-22T01:19:55.724Z,12.32
2023-04-22T01:22:27.404Z,12.54
2023-04-22T01:24:56.954Z,12.27
2023-04-22T01:27:25.023Z,12.10
2023-04-22T01:29:53.628Z,12.16
2023-04-22T01:32:21.822Z,11.87
2023-04-22T01:34:50.427Z,12.20
2023-04-22T01:37:20.039Z,11.79
2023-04-22T01:39:48.927Z,11.88
2023-04-22T01:42:18.804Z,12.08
2023-04-22T01:44:47.299Z,12.31
2023-04-22T01:47:15.808Z,12.32
2023-04-22T01:49:43.880Z,12.34
2023-04-22T01:52:13.897Z,12.38
2023-04-22T01:54:42.420Z,12.39
2023-04-22T01:57:16.406Z,12.09
2023-04-22T01:59:46.366Z,12.10
2023-04-22T02:02:16.184Z,11.90
2023-04-22T02:04:44.378Z,11.99
2023-04-22T02:07:12.495Z,12.10
2023-04-22T02:09:40.737Z,12.23
2023-04-22T02:12:09.190Z,12.33
2023-04-22T02:14:37.225Z,12.27
2023-04-22T02:17:06.687Z,10.69
2023-04-22T02:19:34.795Z,10.46
2023-04-22T02:22:03.015Z,10.74
2023-04-22T02:24:31.619Z,10.39
2023-04-22T02:27:00.332Z,9.95
2023-04-22T02:29:29.397Z,9.91
2023-04-22T02:31:59.980Z,9.49
2023-04-22T02:34:29.686Z,9.44
2023-04-22T02:36:57.730Z,9.71
2023-04-22T02:39:26.545Z,9.67
2023-04-22T02:41:54.688Z,9.58
2023-04-22T02:44:22.850Z,9.44
2023-04-22T02:46:50.943Z,9.19
2023-04-22T02:49:19.415Z,8.98
2023-04-22T02:51:48.822Z,9.03
2023-04-22T02:54:16.975Z,8.84
2023-04-22T02:56:45.031Z,8.89
2023-04-22T02:59:13.020Z,8.84
2023-04-22T03:01:41.206Z,8.71
2023-04-22T03:04:14.387Z,8.80
2023-04-22T03:06:42.768Z,9.00
2023-04-22T03:09:12.345Z,9.22
2023-04-22T03:11:40.506Z,9.57
2023-04-22T03:14:08.514Z,9.54
2023-04-22T03:16:36.700Z,9.58
2023-04-22T03:19:06.651Z,9.73
2023-04-22T03:21:34.738Z,10.56
2023-04-22T03:24:03.415Z,10.60
2023-04-22T03:26:35.702Z,10.59
2023-04-22T03:29:05.043Z,10.71
2023-04-22T03:31:33.229Z,10.80
2023-04-22T03:34:01.377Z,10.50
2023-04-22T03:36:32.089Z,9.91
2023-04-22T03:39:00.202Z,9.91
2023-04-22T03:41:29.863Z,9.80
2023-04-22T03:44:01.620Z,9.82
2023-04-22T03:46:31.470Z,9.70
2023-04-22T03:49:13.548Z,9.22
2023-04-22T03:51:41.777Z,9.29
2023-04-22T03:54:13.894Z,9.25
2023-04-22T03:56:48.486Z,8.86
2023-04-22T03:59:19.010Z,8.67
2023-04-22T04:01:48.255Z,8.72
2023-04-22T04:04:20.550Z,8.76
2023-04-22T04:06:54.225Z,9.05
2023-04-22T04:09:22.461Z,9.61
2023-04-22T04:11:50.473Z,10.17
2023-04-22T04:14:20.611Z,10.75
2023-04-22T04:16:51.467Z,10.43
2023-04-22T04:19:28.489Z,8.90
2023-04-22T04:21:57.158Z,9.04
2023-04-22T04:24:28.432Z,8.91
2023-04-22T04:27:03.281Z,8.74
2023-04-22T04:29:39.838Z,8.81
2023-04-22T04:32:14.307Z,8.37
2023-04-22T04:34:43.750Z,8.22
2023-04-22T04:37:12.774Z,8.12
2023-04-22T04:40:04.605Z,8.03
2023-04-22T04:42:43.804Z,8.27
2023-04-22T04:45:19.320Z,8.86
2023-04-22T04:47:50.826Z,8.65
2023-04-22T04:50:24.123Z,9.37
2023-04-22T04:52:53.009Z,9.81
2023-04-22T04:55:26.590Z,10.63
2023-04-22T04:57:55.588Z,11.05
2023-04-22T05:00:25.261Z,11.31
2023-04-22T05:02:53.717Z,11.53
2023-04-22T05:05:21.849Z,11.70
2023-04-22T05:07:51.768Z,11.86
2023-04-22T05:10:20.342Z,11.92
2023-04-22T05:12:48.747Z,11.99
2023-04-22T05:15:22.054Z,12.07
2023-04-22T05:17:51.612Z,12.21
2023-04-22T05:20:19.724Z,12.19
2023-04-22T05:22:47.861Z,12.18
2023-04-22T05:25:16.961Z,12.07
2023-04-22T05:27:54.121Z,12.17
2023-04-22T05:30:23.120Z,12.20
2023-04-22T05:32:52.494Z,12.16
2023-04-22T05:35:20.782Z,12.25
2023-04-22T05:37:48.875Z,12.09
2023-04-22T05:40:17.036Z,11.79
2023-04-22T05:42:45.190Z,11.70
2023-04-22T05:45:13.587Z,11.90
2023-04-22T05:47:41.765Z,12.11
2023-04-22T05:50:11.953Z,12.45
2023-04-22T05:52:55.542Z,11.91
2023-04-22T05:55:23.669Z,11.83
2023-04-22T05:57:51.874Z,12.14
2023-04-22T06:00:38.034Z,12.54
2023-04-22T06:03:26.581Z,12.64
2023-04-22T06:05:56.384Z,12.72
2023-04-22T06:08:24.801Z,12.84
2023-04-22T06:10:52.791Z,13.18
2023-04-22T06:13:22.083Z,13.08
2023-04-22T06:15:50.489Z,13.23
2023-04-22T06:18:18.654Z,13.58
2023-04-22T06:20:47.039Z,13.54
2023-04-22T06:23:16.575Z,13.88
2023-04-22T06:25:44.862Z,13.87
2023-04-22T06:28:13.040Z,13.93
2023-04-22T06:30:41.976Z,14.04
2023-04-22T06:33:10.154Z,14.29
2023-04-22T06:35:38.664Z,14.24
2023-04-22T06:38:06.907Z,14.47
2023-04-22T06:40:44.104Z,14.58
2023-04-22T06:43:22.458Z,14.46
2023-04-22T06:46:11.217Z,14.60
2023-04-22T06:48:58.184Z,14.88
2023-04-22T06:51:46.582Z,15.27
2023-04-22T06:54:14.901Z,14.83
2023-04-22T06:56:44.468Z,15.21
2023-04-22T06:59:12.595Z,15.57
2023-04-22T07:01:41.075Z,15.39
2023-04-22T07:04:09.292Z,15.99
2023-04-22T07:06:37.430Z,16.13
2023-04-22T07:09:05.605Z,16.15
2023-04-22T07:11:34.225Z,16.22
2023-04-22T07:14:11.992Z,16.07
2023-04-22T07:16:40.218Z,16.22
2023-04-22T07:19:08.272Z,16.49
2023-04-22T07:21:36.404Z,16.63
2023-04-22T07:24:04.457Z,16.76
2023-04-22T07:26:34.484Z,17.06
2023-04-22T07:29:02.595Z,17.21
2023-04-22T07:31:32.054Z,17.49
2023-04-22T07:34:00.135Z,17.66
2023-04-22T07:36:28.191Z,17.68
2023-04-22T07:38:56.406Z,17.82
2023-04-22T07:41:24.656Z,17.80
2023-04-22T07:43:52.989Z,17.97
2023-04-22T07:46:21.269Z,18.17
2023-04-22T07:48:50.733Z,18.20
2023-04-22T07:51:18.783Z,18.50
2023-04-22T07:53:46.863Z,18.67
2023-04-22T07:56:15.056Z,18.63
2023-04-22T07:58:43.093Z,18.80
2023-04-22T08:01:11.141Z,18.75
2023-04-22T08:03:39.395Z,19.02
2023-04-22T08:06:09.281Z,19.20
2023-04-22T08:08:37.390Z,19.17
2023-04-22T08:11:05.838Z,19.32
2023-04-22T08:13:33.907Z,19.40
2023-04-22T08:16:03.228Z,19.48
2023-04-22T08:18:31.421Z,19.52
2023-04-22T08:20:59.861Z,19.54
2023-04-22T08:23:29.225Z,19.64
2023-04-22T08:25:57.352Z,19.86
2023-04-22T08:28:25.447Z,19.43
2023-04-22T08:30:53.582Z,19.99
2023-04-22T08:33:21.692Z,20.12
2023-04-22T08:35:49.811Z,20.32
2023-04-22T08:38:17.833Z,20.33
2023-04-22T08:40:47.849Z,20.43
2023-04-22T08:43:16.236Z,20.34
2023-04-22T08:45:44.487Z,20.38
2023-04-22T08:48:13.865Z,20.50
2023-04-22T08:50:42.511Z,20.78
2023-04-22T08:53:10.607Z,20.58
2023-04-22T08:55:39.295Z,21.01
2023-04-22T08:58:08.914Z,21.15
2023-04-22T09:00:37.014Z,21.20
2023-04-22T09:03:07.945Z,20.97
2023-04-22T09:05:38.605Z,20.97
2023-04-22T09:08:07.914Z,21.18
2023-04-22T09:10:38.523Z,20.98
2023-04-22T09:13:09.364Z,20.93
2023-04-22T09:15:37.550Z,21.04
2023-04-22T09:18:06.114Z,21.32
2023-04-22T09:20:34.108Z,21.34
2023-04-22T09:23:05.506Z,21.27
2023-04-22T09:25:35.667Z,21.25
2023-04-22T09:28:03.692Z,20.61
2023-04-22T09:30:35.937Z,20.92
2023-04-22T09:33:06.009Z,21.28
2023-04-22T09:35:35.410Z,20.92
2023-04-22T09:38:06.395Z,20.91
2023-04-22T09:40:35.061Z,21.23
2023-04-22T09:43:04.886Z,21.28
2023-04-22T09:45:36.538Z,21.24
2023-04-22T09:48:09.847Z,21.66
2023-04-22T09:50:39.104Z,21.34
2023-04-22T09:53:09.053Z,21.28
2023-04-22T09:55:41.439Z,21.43
2023-04-22T09:58:12.316Z,21.08
2023-04-22T10:00:48.785Z,21.48
2023-04-22T10:03:17.905Z,21.70
2023-04-22T10:05:46.468Z,21.86
2023-04-22T10:08:16.921Z,21.82
2023-04-22T10:10:47.419Z,21.95
2023-04-22T10:13:15.880Z,21.60
2023-04-22T10:15:50.641Z,21.56
2023-04-22T10:18:22.902Z,21.70
2023-04-22T10:20:52.349Z,21.84
2023-04-22T10:23:23.637Z,21.82
2023-04-22T10:25:55.049Z,21.89
2023-04-22T10:28:24.895Z,21.70
2023-04-22T10:30:55.110Z,21.86
2023-04-22T10:33:40.113Z,22.10
2023-04-22T10:36:10.832Z,22.20
2023-04-22T10:38:40.627Z,22.10
2023-04-22T10:41:14.354Z,20.91
2023-04-22T10:43:43.334Z,21.69
2023-04-22T10:46:53.190Z,21.73
2023-04-22T10:49:24.495Z,21.90
2023-04-22T10:51:53.893Z,22.18
2023-04-22T10:55:00.688Z,21.62
2023-04-22T10:57:42.930Z,20.46
2023-04-22T11:03:11.980Z,21.31
2023-04-22T11:05:42.099Z,21.84
2023-04-22T11:08:14.376Z,22.02
2023-04-22T11:10:45.038Z,22.26
2023-04-22T11:13:15.996Z,22.13
2023-04-22T11:15:45.947Z,22.40
2023-04-22T11:18:20.869Z,22.33
2023-04-22T11:20:51.427Z,22.55
2023-04-22T11:23:22.163Z,22.95
2023-04-22T11:25:55.905Z,23.04
2023-04-22T11:28:24.284Z,23.12
2023-04-22T11:30:52.785Z,22.80
2023-04-22T11:33:21.717Z,23.11
2023-04-22T11:35:52.694Z,22.82
2023-04-22T11:38:20.666Z,20.82
2023-04-22T11:40:49.115Z,21.16
2023-04-22T11:43:18.726Z,22.18
2023-04-22T11:45:47.171Z,22.40
2023-04-22T11:48:16.717Z,22.75
2023-04-22T11:50:45.580Z,23.22
2023-04-22T11:53:19.478Z,23.42
2023-04-22T11:55:51.327Z,23.61
2023-04-22T11:58:21.557Z,24.24
2023-04-22T12:00:51.657Z,25.15
2023-04-22T12:03:21.353Z,25.70
2023-04-22T12:05:54.290Z,26.16
2023-04-22T12:08:26.100Z,26.36
2023-04-22T12:10:55.976Z,26.83
2023-04-22T12:13:25.986Z,27.21
2023-04-22T12:15:55.655Z,27.68
2023-04-22T12:18:30.781Z,27.69
2023-04-22T12:21:01.218Z,28.22
2023-04-22T12:23:30.610Z,29.01
2023-04-22T12:25:58.864Z,28.45
2023-04-22T12:28:26.863Z,28.85
2023-04-22T12:30:54.990Z,29.05
2023-04-22T12:33:23.073Z,28.98
2023-04-22T12:35:52.705Z,29.33
2023-04-22T12:38:21.294Z,27.91
2023-04-22T12:40:51.130Z,28.17
2023-04-22T12:43:26.091Z,27.75
2023-04-22T12:45:54.264Z,28.48
2023-04-22T12:48:22.299Z,29.50
2023-04-22T12:50:50.346Z,28.91
2023-04-22T12:53:18.467Z,29.60
2023-04-22T12:55:46.596Z,29.07
2023-04-22T12:58:16.152Z,29.81
2023-04-22T13:00:44.281Z,30.11
2023-04-22T13:03:12.552Z,29.35
2023-04-22T13:05:40.818Z,29.62
2023-04-22T13:08:08.893Z,29.71
2023-04-22T13:10:37.087Z,29.61
2023-04-22T13:13:17.755Z,27.96
2023-04-22T13:15:53.341Z,29.10
2023-04-22T13:18:22.851Z,28.56
2023-04-22T13:20:51.329Z,28.60
2023-04-22T13:23:21.857Z,28.99
2023-04-22T13:25:50.667Z,28.73
2023-04-22T13:28:18.676Z,26.38
2023-04-22T13:30:48.406Z,28.01
2023-04-22T13:33:16.476Z,28.21
2023-04-22T13:35:44.597Z,28.82
2023-04-22T13:38:12.640Z,27.81
2023-04-22T13:40:40.810Z,28.45
2023-04-22T13:43:09.813Z,29.19
2023-04-22T13:45:38.142Z,28.21
2023-04-22T13:48:07.757Z,29.22
2023-04-22T13:50:35.835Z,29.92
2023-04-22T13:53:04.917Z,30.05
2023-04-22T13:55:33.006Z,29.67
2023-04-22T13:58:01.274Z,29.83
2023-04-22T14:00:29.711Z,29.28
2023-04-22T14:02:58.107Z,29.55
2023-04-22T14:05:27.865Z,29.75
2023-04-22T14:07:55.955Z,29.01
2023-04-22T14:10:25.612Z,29.36
2023-04-22T14:12:55.371Z,29.65
2023-04-22T14:15:23.391Z,29.64
2023-04-22T14:17:51.394Z,26.41
2023-04-22T14:20:19.633Z,24.32
2023-04-22T14:22:49.063Z,25.71
2023-04-22T14:25:17.169Z,27.58
2023-04-22T14:27:45.191Z,27.45
2023-04-22T14:30:14.808Z,28.16
2023-04-22T14:32:42.962Z,28.01
2023-04-22T14:35:11.683Z,28.94
2023-04-22T14:37:41.490Z,29.29
2023-04-22T14:40:13.273Z,29.38
2023-04-22T14:42:42.118Z,29.60
2023-04-22T14:45:11.034Z,29.92
2023-04-22T14:47:39.269Z,30.05
2023-04-22T14:50:08.247Z,29.86
2023-04-22T14:52:36.397Z,29.94
2023-04-22T14:55:15.535Z,30.46
2023-04-22T14:57:53.348Z,30.04
2023-04-22T15:00:21.895Z,30.07
2023-04-22T15:02:50.331Z,30.07
2023-04-22T15:05:18.546Z,30.51
2023-04-22T15:07:46.661Z,30.11
2023-04-22T15:10:16.813Z,29.78
2023-04-22T15:12:45.638Z,29.20
2023-04-22T15:15:16.223Z,30.05
2023-04-22T15:17:44.987Z,29.79
2023-04-22T15:20:14.255Z,29.83
2023-04-22T15:22:42.435Z,29.91
2023-04-22T15:25:11.581Z,30.10
2023-04-22T15:27:40.499Z,29.73
2023-04-22T15:30:10.918Z,29.52
2023-04-22T15:32:40.790Z,30.07
2023-04-22T15:35:09.675Z,30.06
2023-04-22T15:37:37.830Z,29.92
2023-04-22T15:40:07.730Z,30.20
2023-04-22T15:42:36.055Z,30.01
2023-04-22T15:45:04.508Z,30.39
2023-04-22T15:47:32.816Z,30.63
2023-04-22T15:50:06.630Z,30.18
2023-04-22T15:52:35.012Z,30.05
2023-04-22T15:55:03.087Z,29.99
2023-04-22T15:57:34.752Z,30.08
2023-04-22T16:00:11.733Z,29.69
2023-04-22T16:02:43.710Z,29.49
2023-04-22T16:05:14.693Z,29.57
2023-04-22T16:07:43.085Z,29.70
2023-04-22T16:10:12.113Z,29.50
2023-04-22T16:12:40.183Z,29.45
2023-04-22T16:15:09.672Z,29.43
2023-04-22T16:17:38.396Z,29.04
2023-04-22T16:20:07.916Z,29.45
2023-04-22T16:22:37.524Z,29.27
2023-04-22T16:25:06.515Z,28.80
2023-04-22T16:27:34.588Z,28.50
2023-04-22T16:30:02.701Z,28.72
2023-04-22T16:32:30.947Z,28.77
2023-04-22T16:34:59.074Z,28.72
2023-04-22T16:37:27.368Z,28.80
2023-04-22T16:39:56.774Z,28.78
2023-04-22T16:42:24.927Z,28.93
2023-04-22T16:44:57.915Z,28.85
2023-04-22T16:47:27.055Z,28.07
2023-04-22T16:49:55.168Z,28.28
2023-04-22T16:52:23.194Z,27.91
2023-04-22T16:54:51.584Z,27.15
2023-04-22T16:57:21.047Z,27.11
2023-04-22T16:59:49.164Z,27.54
2023-04-22T17:02:17.328Z,26.93
2023-04-22T17:04:45.491Z,26.86
2023-04-22T17:07:13.513Z,26.58
2023-04-22T17:09:41.884Z,26.45
2023-04-22T17:12:10.602Z,26.56
2023-04-22T17:14:40.164Z,26.15
2023-04-22T17:17:08.285Z,26.13
2023-04-22T17:19:36.540Z,25.65
2023-04-22T17:22:04.718Z,25.82
2023-04-22T17:24:32.810Z,25.65
2023-04-22T17:27:01.738Z,25.50
2023-04-22T17:29:29.754Z,25.18
2023-04-22T17:31:59.213Z,25.01
2023-04-22T17:34:27.949Z,24.57
2023-04-22T17:36:55.933Z,24.51
2023-04-22T17:39:24.141Z,24.29
2023-04-22T17:41:52.265Z,24.03
2023-04-22T17:44:20.517Z,23.68
2023-04-22T17:46:48.581Z,23.38
2023-04-22T17:49:17.995Z,23.24
2023-04-22T17:51:46.148Z,23.15
2023-04-22T17:54:14.256Z,22.99
2023-04-22T17:56:42.358Z,22.52
2023-04-22T17:59:11.408Z,22.37
2023-04-22T18:01:39.981Z,22.37
2023-04-22T18:04:08.311Z,22.11
2023-04-22T18:06:38.033Z,22.05
2023-04-22T18:09:06.281Z,21.72
2023-04-22T18:11:34.330Z,21.80
2023-04-22T18:14:02.540Z,21.56
2023-04-22T18:16:30.722Z,21.44
2023-04-22T18:18:59.856Z,21.23
2023-04-22T18:21:29.374Z,21.14
2023-04-22T18:23:59.230Z,21.02
2023-04-22T18:26:27.540Z,20.97
2023-04-22T18:28:55.609Z,20.81
2023-04-22T18:31:23.782Z,20.92
2023-04-22T18:33:51.800Z,20.71
2023-04-22T18:36:19.970Z,20.53
2023-04-22T18:38:48.044Z,20.67
2023-04-22T18:41:17.462Z,20.47
2023-04-22T18:43:47.168Z,20.36
2023-04-22T18:46:15.301Z,20.23
2023-04-22T18:48:43.586Z,20.24
2023-04-22T18:51:12.388Z,20.04
2023-04-22T18:53:40.423Z,19.82
2023-04-22T18:56:08.519Z,19.95
2023-04-22T18:58:37.927Z,19.77
2023-04-22T19:01:06.559Z,19.81
2023-04-22T19:03:34.827Z,19.70
2023-04-22T19:06:02.963Z,19.56
2023-04-22T19:08:31.115Z,19.60
2023-04-22T19:10:59.422Z,19.40
2023-04-22T19:13:29.582Z,19.42
2023-04-22T19:16:00.007Z,19.28
2023-04-22T19:18:28.292Z,19.34
2023-04-22T19:20:56.324Z,19.32
2023-04-22T19:23:24.407Z,19.27
2023-04-22T19:25:53.217Z,19.23
2023-04-22T19:28:21.332Z,19.17
2023-04-22T19:30:49.389Z,19.08
2023-04-22T19:33:19.074Z,19.04
2023-04-22T19:35:47.324Z,18.95
2023-04-22T19:38:19.071Z,18.87
2023-04-22T19:40:47.459Z,18.81
2023-04-22T19:43:17.162Z,18.71
2023-04-22T19:45:45.503Z,18.67
2023-04-22T19:48:14.020Z,18.64
2023-04-22T19:50:44.854Z,18.54
2023-04-22T19:53:13.868Z,18.46
2023-04-22T19:55:44.204Z,18.42
2023-04-22T19:58:12.425Z,18.32
2023-04-22T20:00:42.554Z,18.30
2023-04-22T20:03:13.112Z,18.32
2023-04-22T20:05:44.317Z,18.29
2023-04-22T20:08:14.750Z,18.27
2023-04-22T20:10:44.363Z,18.11
2023-04-22T20:13:12.494Z,18.15
2023-04-22T20:15:40.856Z,18.06
2023-04-22T20:18:09.553Z,18.03
2023-04-22T20:20:38.854Z,17.94
2023-04-22T20:23:10.569Z,17.88
2023-04-22T20:25:42.650Z,17.84
2023-04-22T20:28:11.934Z,17.77
2023-04-22T20:30:40.929Z,17.74
2023-04-22T20:33:12.204Z,17.73
2023-04-22T20:35:41.166Z,17.70
2023-04-22T20:38:13.436Z,17.61
2023-04-22T20:40:42.212Z,17.56
2023-04-22T20:43:10.796Z,17.57
2023-04-22T20:45:39.040Z,17.52
2023-04-22T20:48:07.178Z,17.53
2023-04-22T20:50:35.309Z,17.48
2023-04-22T20:53:05.249Z,17.42
2023-04-22T20:55:36.858Z,17.28
2023-04-22T20:58:05.380Z,17.29
2023-04-22T21:00:33.504Z,17.29
2023-04-22T21:03:02.496Z,17.22
2023-04-22T21:05:30.884Z,17.14
2023-04-22T21:08:01.836Z,17.14
2023-04-22T21:10:30.775Z,17.11
2023-04-22T21:13:00.488Z,17.06
2023-04-22T21:15:29.605Z,17.01
2023-04-22T21:17:59.585Z,16.95
2023-04-22T21:20:30.879Z,16.93
2023-04-22T21:22:59.766Z,16.95
2023-04-22T21:25:30.000Z,16.84
2023-04-22T21:27:58.658Z,16.73
2023-04-22T21:30:28.732Z,16.80
2023-04-22T21:32:56.813Z,16.79
2023-04-22T21:35:25.664Z,16.69
2023-04-22T21:37:54.184Z,16.63
2023-04-22T21:40:22.350Z,16.58
2023-04-22T21:42:50.573Z,16.35
2023-04-22T21:45:18.797Z,16.46
2023-04-22T21:47:48.418Z,16.44
2023-04-22T21:50:17.254Z,16.42
2023-04-22T21:52:46.136Z,16.31
2023-04-22T21:55:14.177Z,16.37
2023-04-22T21:57:42.226Z,16.28
2023-04-22T22:00:15.479Z,16.21
2023-04-22T22:02:43.859Z,16.13
2023-04-22T22:05:14.921Z,16.14
2023-04-22T22:07:45.142Z,16.12
2023-04-22T22:10:15.413Z,15.90
2023-04-22T22:12:43.531Z,15.93
2023-04-22T22:15:12.579Z,15.84
2023-04-22T22:17:40.730Z,15.82
2023-04-22T22:20:12.260Z,15.78
2023-04-22T22:22:42.198Z,15.75
2023-04-22T22:25:11.981Z,15.51
2023-04-22T22:27:41.842Z,15.54
2023-04-22T22:30:10.687Z,15.54
2023-04-22T22:32:38.837Z,15.35
2023-04-22T22:35:07.980Z,15.31
2023-04-22T22:37:36.492Z,15.39
2023-04-22T22:40:07.166Z,15.38
2023-04-22T22:42:36.196Z,15.38
2023-04-22T22:45:05.281Z,15.36
2023-04-22T22:47:33.604Z,15.31
2023-04-22T22:50:01.778Z,15.23
2023-04-22T22:52:30.794Z,15.23
2023-04-22T22:54:58.832Z,15.23
2023-04-22T22:57:28.272Z,15.14
2023-04-22T22:59:56.303Z,15.08
2023-04-22T23:02:24.546Z,15.04
2023-04-22T23:04:53.968Z,14.98
2023-04-22T23:07:22.449Z,14.83
2023-04-22T23:09:50.558Z,14.92
2023-04-22T23:12:18.597Z,14.87
2023-04-22T23:14:48.012Z,14.83
2023-04-22T23:17:17.394Z,14.79
2023-04-22T23:19:46.463Z,14.78
2023-04-22T23:22:15.362Z,14.73
2023-04-22T23:24:44.005Z,14.72
2023-04-22T23:27:12.572Z,14.64
2023-04-22T23:29:42.199Z,14.64
2023-04-22T23:32:16.317Z,14.57
2023-04-22T23:34:47.019Z,14.56
2023-04-22T23:37:16.287Z,14.49
2023-04-22T23:39:44.464Z,14.44
2023-04-22T23:42:12.528Z,14.39
2023-04-22T23:44:40.668Z,14.38
2023-04-22T23:47:08.865Z,14.45
2023-04-22T23:49:38.365Z,14.39
2023-04-22T23:52:08.050Z,14.38
2023-04-22T23:54:36.534Z,14.29
2023-04-22T23:57:05.098Z,14.26
2023-04-22T23:59:33.833Z,14.18
